<?xml version="1.0" encoding="UTF-8" standalone="no" ?>
<gpx xmlns="http://www.topografix.com/GPX/1/1" xmlns:xsi="http://www.w3.org/2001/XMLSchema-instance" xsi:schemaLocation="http://www.topografix.com/GPX/1/1 http://www.topografix.com/GPX/1/1/gpx.xsd" version="1.1" creator="VisuGPX - https://www.visugpx.com">
  <metadata>
    <name>2017-09-28-46-Prayssac</name>
    <desc><![CDATA[Randonnée de 12,5km pour environ 400m de dénivelé positif. De beaux chemins dans les sous-bois pour decouvrir quelques gariottes et dolmens, sans oublier le grand  chaos de pierres.]]></desc>
  </metadata>
  <trk>
    <name><![CDATA[PRAYSSAC 8 17:37:54]]></name>
    <trkseg>
      <trkpt lat="44.50677" lon="1.18961">
        <ele>103</ele>
        <time>2017-09-28T12:01:43Z</time>
      </trkpt>
      <trkpt lat="44.50695" lon="1.18968">
        <ele>103.48</ele>
        <time>2017-09-28T12:02:42Z</time>
      </trkpt>
      <trkpt lat="44.50702" lon="1.18994">
        <ele>103.48</ele>
        <time>2017-09-28T12:04:23Z</time>
      </trkpt>
      <trkpt lat="44.5071" lon="1.19018">
        <ele>103.48</ele>
        <time>2017-09-28T12:04:43Z</time>
      </trkpt>
      <trkpt lat="44.50715" lon="1.19043">
        <ele>103.48</ele>
        <time>2017-09-28T12:05:01Z</time>
      </trkpt>
      <trkpt lat="44.50722" lon="1.19068">
        <ele>103.48</ele>
        <time>2017-09-28T12:05:18Z</time>
      </trkpt>
      <trkpt lat="44.5073" lon="1.19092">
        <ele>103.96</ele>
        <time>2017-09-28T12:05:36Z</time>
      </trkpt>
      <trkpt lat="44.50745" lon="1.19109">
        <ele>103.96</ele>
        <time>2017-09-28T12:05:53Z</time>
      </trkpt>
      <trkpt lat="44.50761" lon="1.19123">
        <ele>103.96</ele>
        <time>2017-09-28T12:06:09Z</time>
      </trkpt>
      <trkpt lat="44.50779" lon="1.19121">
        <ele>103.96</ele>
        <time>2017-09-28T12:06:25Z</time>
      </trkpt>
      <trkpt lat="44.50798" lon="1.19116">
        <ele>103.96</ele>
        <time>2017-09-28T12:06:41Z</time>
      </trkpt>
      <trkpt lat="44.50817" lon="1.19112">
        <ele>103.96</ele>
        <time>2017-09-28T12:06:58Z</time>
      </trkpt>
      <trkpt lat="44.50825" lon="1.19139">
        <ele>103.96</ele>
        <time>2017-09-28T12:07:16Z</time>
      </trkpt>
      <trkpt lat="44.50831" lon="1.19164">
        <ele>103.96</ele>
        <time>2017-09-28T12:07:33Z</time>
      </trkpt>
      <trkpt lat="44.50839" lon="1.19189">
        <ele>103.96</ele>
        <time>2017-09-28T12:07:50Z</time>
      </trkpt>
      <trkpt lat="44.50847" lon="1.19215">
        <ele>103.96</ele>
        <time>2017-09-28T12:08:07Z</time>
      </trkpt>
      <trkpt lat="44.50853" lon="1.19242">
        <ele>103.96</ele>
        <time>2017-09-28T12:08:26Z</time>
      </trkpt>
      <trkpt lat="44.50859" lon="1.19268">
        <ele>103.96</ele>
        <time>2017-09-28T12:08:45Z</time>
      </trkpt>
      <trkpt lat="44.50865" lon="1.19295">
        <ele>103.96</ele>
        <time>2017-09-28T12:09:03Z</time>
      </trkpt>
      <trkpt lat="44.50871" lon="1.19322">
        <ele>103.96</ele>
        <time>2017-09-28T12:09:21Z</time>
      </trkpt>
      <trkpt lat="44.50876" lon="1.19345">
        <ele>103.96</ele>
        <time>2017-09-28T12:09:38Z</time>
      </trkpt>
      <trkpt lat="44.5088" lon="1.19373">
        <ele>104.44</ele>
        <time>2017-09-28T12:09:55Z</time>
      </trkpt>
      <trkpt lat="44.50884" lon="1.194">
        <ele>104.44</ele>
        <time>2017-09-28T12:10:12Z</time>
      </trkpt>
      <trkpt lat="44.50889" lon="1.19425">
        <ele>104.44</ele>
        <time>2017-09-28T12:10:29Z</time>
      </trkpt>
      <trkpt lat="44.50895" lon="1.19451">
        <ele>104.44</ele>
        <time>2017-09-28T12:10:45Z</time>
      </trkpt>
      <trkpt lat="44.50903" lon="1.19474">
        <ele>104.44</ele>
        <time>2017-09-28T12:11:01Z</time>
      </trkpt>
      <trkpt lat="44.50913" lon="1.19496">
        <ele>104.44</ele>
        <time>2017-09-28T12:11:18Z</time>
      </trkpt>
      <trkpt lat="44.5093" lon="1.1951">
        <ele>104.44</ele>
        <time>2017-09-28T12:11:34Z</time>
      </trkpt>
      <trkpt lat="44.50945" lon="1.19525">
        <ele>104.92</ele>
        <time>2017-09-28T12:11:50Z</time>
      </trkpt>
      <trkpt lat="44.50962" lon="1.19539">
        <ele>104.92</ele>
        <time>2017-09-28T12:12:06Z</time>
      </trkpt>
      <trkpt lat="44.50978" lon="1.19554">
        <ele>104.92</ele>
        <time>2017-09-28T12:12:23Z</time>
      </trkpt>
      <trkpt lat="44.50994" lon="1.1957">
        <ele>104.92</ele>
        <time>2017-09-28T12:12:40Z</time>
      </trkpt>
      <trkpt lat="44.51009" lon="1.19584">
        <ele>105.4</ele>
        <time>2017-09-28T12:12:56Z</time>
      </trkpt>
      <trkpt lat="44.51027" lon="1.19599">
        <ele>105.4</ele>
        <time>2017-09-28T12:13:13Z</time>
      </trkpt>
      <trkpt lat="44.51042" lon="1.19613">
        <ele>105.4</ele>
        <time>2017-09-28T12:13:30Z</time>
      </trkpt>
      <trkpt lat="44.5106" lon="1.19625">
        <ele>105.4</ele>
        <time>2017-09-28T12:13:51Z</time>
      </trkpt>
      <trkpt lat="44.51078" lon="1.19639">
        <ele>105.88</ele>
        <time>2017-09-28T12:14:09Z</time>
      </trkpt>
      <trkpt lat="44.51096" lon="1.19654">
        <ele>105.88</ele>
        <time>2017-09-28T12:14:29Z</time>
      </trkpt>
      <trkpt lat="44.51113" lon="1.19672">
        <ele>105.88</ele>
        <time>2017-09-28T12:14:47Z</time>
      </trkpt>
      <trkpt lat="44.51128" lon="1.19691">
        <ele>105.88</ele>
        <time>2017-09-28T12:15:04Z</time>
      </trkpt>
      <trkpt lat="44.5114" lon="1.19712">
        <ele>106.36</ele>
        <time>2017-09-28T12:15:21Z</time>
      </trkpt>
      <trkpt lat="44.5115" lon="1.19735">
        <ele>106.36</ele>
        <time>2017-09-28T12:15:38Z</time>
      </trkpt>
      <trkpt lat="44.51159" lon="1.1976">
        <ele>106.36</ele>
        <time>2017-09-28T12:15:56Z</time>
      </trkpt>
      <trkpt lat="44.51168" lon="1.19784">
        <ele>106.84</ele>
        <time>2017-09-28T12:16:12Z</time>
      </trkpt>
      <trkpt lat="44.51178" lon="1.19807">
        <ele>106.84</ele>
        <time>2017-09-28T12:16:29Z</time>
      </trkpt>
      <trkpt lat="44.5119" lon="1.19827">
        <ele>106.84</ele>
        <time>2017-09-28T12:16:45Z</time>
      </trkpt>
      <trkpt lat="44.51204" lon="1.19846">
        <ele>107.32</ele>
        <time>2017-09-28T12:17:02Z</time>
      </trkpt>
      <trkpt lat="44.5122" lon="1.19863">
        <ele>107.32</ele>
        <time>2017-09-28T12:17:19Z</time>
      </trkpt>
      <trkpt lat="44.51231" lon="1.19887">
        <ele>107.32</ele>
        <time>2017-09-28T12:17:36Z</time>
      </trkpt>
      <trkpt lat="44.51236" lon="1.19914">
        <ele>107.81</ele>
        <time>2017-09-28T12:17:52Z</time>
      </trkpt>
      <trkpt lat="44.51245" lon="1.19937">
        <ele>107.81</ele>
        <time>2017-09-28T12:18:09Z</time>
      </trkpt>
      <trkpt lat="44.51262" lon="1.19948">
        <ele>107.81</ele>
        <time>2017-09-28T12:18:25Z</time>
      </trkpt>
      <trkpt lat="44.51283" lon="1.19953">
        <ele>108.29</ele>
        <time>2017-09-28T12:18:44Z</time>
      </trkpt>
      <trkpt lat="44.51299" lon="1.19938">
        <ele>108.29</ele>
        <time>2017-09-28T12:19:04Z</time>
      </trkpt>
      <trkpt lat="44.51309" lon="1.19915">
        <ele>108.29</ele>
        <time>2017-09-28T12:19:22Z</time>
      </trkpt>
      <trkpt lat="44.51321" lon="1.19892">
        <ele>108.77</ele>
        <time>2017-09-28T12:19:39Z</time>
      </trkpt>
      <trkpt lat="44.51332" lon="1.19871">
        <ele>108.77</ele>
        <time>2017-09-28T12:19:55Z</time>
      </trkpt>
      <trkpt lat="44.51347" lon="1.19855">
        <ele>108.77</ele>
        <time>2017-09-28T12:20:12Z</time>
      </trkpt>
      <trkpt lat="44.51365" lon="1.19846">
        <ele>109.25</ele>
        <time>2017-09-28T12:20:28Z</time>
      </trkpt>
      <trkpt lat="44.51384" lon="1.19834">
        <ele>109.25</ele>
        <time>2017-09-28T12:20:44Z</time>
      </trkpt>
      <trkpt lat="44.51401" lon="1.19819">
        <ele>109.73</ele>
        <time>2017-09-28T12:21:00Z</time>
      </trkpt>
      <trkpt lat="44.51418" lon="1.19804">
        <ele>109.73</ele>
        <time>2017-09-28T12:21:17Z</time>
      </trkpt>
      <trkpt lat="44.51432" lon="1.19788">
        <ele>109.73</ele>
        <time>2017-09-28T12:21:33Z</time>
      </trkpt>
      <trkpt lat="44.51446" lon="1.19771">
        <ele>110.21</ele>
        <time>2017-09-28T12:21:49Z</time>
      </trkpt>
      <trkpt lat="44.5146" lon="1.19753">
        <ele>110.21</ele>
        <time>2017-09-28T12:22:05Z</time>
      </trkpt>
      <trkpt lat="44.51475" lon="1.19736">
        <ele>110.21</ele>
        <time>2017-09-28T12:22:21Z</time>
      </trkpt>
      <trkpt lat="44.51488" lon="1.19718">
        <ele>110.21</ele>
        <time>2017-09-28T12:22:37Z</time>
      </trkpt>
      <trkpt lat="44.51502" lon="1.197">
        <ele>110.21</ele>
        <time>2017-09-28T12:22:53Z</time>
      </trkpt>
      <trkpt lat="44.51517" lon="1.19682">
        <ele>110.69</ele>
        <time>2017-09-28T12:23:09Z</time>
      </trkpt>
      <trkpt lat="44.51529" lon="1.19664">
        <ele>110.69</ele>
        <time>2017-09-28T12:23:24Z</time>
      </trkpt>
      <trkpt lat="44.51543" lon="1.19646">
        <ele>110.69</ele>
        <time>2017-09-28T12:23:39Z</time>
      </trkpt>
      <trkpt lat="44.51557" lon="1.19628">
        <ele>110.69</ele>
        <time>2017-09-28T12:23:54Z</time>
      </trkpt>
      <trkpt lat="44.51571" lon="1.1961">
        <ele>110.69</ele>
        <time>2017-09-28T12:24:10Z</time>
      </trkpt>
      <trkpt lat="44.51586" lon="1.19593">
        <ele>110.69</ele>
        <time>2017-09-28T12:24:26Z</time>
      </trkpt>
      <trkpt lat="44.51602" lon="1.19576">
        <ele>110.69</ele>
        <time>2017-09-28T12:24:42Z</time>
      </trkpt>
      <trkpt lat="44.5162" lon="1.19564">
        <ele>111.17</ele>
        <time>2017-09-28T12:24:57Z</time>
      </trkpt>
      <trkpt lat="44.51636" lon="1.19551">
        <ele>111.17</ele>
        <time>2017-09-28T12:25:12Z</time>
      </trkpt>
      <trkpt lat="44.51654" lon="1.19553">
        <ele>111.17</ele>
        <time>2017-09-28T12:25:28Z</time>
      </trkpt>
      <trkpt lat="44.51666" lon="1.19578">
        <ele>111.17</ele>
        <time>2017-09-28T12:25:44Z</time>
      </trkpt>
      <trkpt lat="44.51679" lon="1.19596">
        <ele>111.17</ele>
        <time>2017-09-28T12:25:59Z</time>
      </trkpt>
      <trkpt lat="44.51696" lon="1.19596">
        <ele>111.17</ele>
        <time>2017-09-28T12:26:14Z</time>
      </trkpt>
      <trkpt lat="44.51707" lon="1.19576">
        <ele>111.17</ele>
        <time>2017-09-28T12:26:29Z</time>
      </trkpt>
      <trkpt lat="44.51721" lon="1.19556">
        <ele>111.17</ele>
        <time>2017-09-28T12:26:45Z</time>
      </trkpt>
      <trkpt lat="44.51735" lon="1.19538">
        <ele>111.65</ele>
        <time>2017-09-28T12:27:01Z</time>
      </trkpt>
      <trkpt lat="44.5175" lon="1.1952">
        <ele>111.65</ele>
        <time>2017-09-28T12:27:17Z</time>
      </trkpt>
      <trkpt lat="44.51763" lon="1.19503">
        <ele>111.65</ele>
        <time>2017-09-28T12:27:34Z</time>
      </trkpt>
      <trkpt lat="44.51774" lon="1.19488">
        <ele>112.13</ele>
        <time>2017-09-28T12:30:59Z</time>
      </trkpt>
      <trkpt lat="44.51788" lon="1.19467">
        <ele>112.13</ele>
        <time>2017-09-28T12:31:16Z</time>
      </trkpt>
      <trkpt lat="44.51782" lon="1.19448">
        <ele>112.13</ele>
        <time>2017-09-28T12:31:32Z</time>
      </trkpt>
      <trkpt lat="44.51771" lon="1.19429">
        <ele>112.13</ele>
        <time>2017-09-28T12:31:48Z</time>
      </trkpt>
      <trkpt lat="44.51757" lon="1.19409">
        <ele>112.13</ele>
        <time>2017-09-28T12:32:05Z</time>
      </trkpt>
      <trkpt lat="44.51742" lon="1.19389">
        <ele>112.13</ele>
        <time>2017-09-28T12:32:21Z</time>
      </trkpt>
      <trkpt lat="44.5173" lon="1.19369">
        <ele>112.61</ele>
        <time>2017-09-28T12:32:37Z</time>
      </trkpt>
      <trkpt lat="44.51721" lon="1.19345">
        <ele>112.61</ele>
        <time>2017-09-28T12:32:54Z</time>
      </trkpt>
      <trkpt lat="44.51736" lon="1.19331">
        <ele>112.61</ele>
        <time>2017-09-28T12:33:13Z</time>
      </trkpt>
      <trkpt lat="44.51754" lon="1.19328">
        <ele>112.61</ele>
        <time>2017-09-28T12:33:55Z</time>
      </trkpt>
      <trkpt lat="44.51774" lon="1.19325">
        <ele>112.61</ele>
        <time>2017-09-28T12:34:12Z</time>
      </trkpt>
      <trkpt lat="44.51793" lon="1.19317">
        <ele>112.61</ele>
        <time>2017-09-28T12:34:29Z</time>
      </trkpt>
      <trkpt lat="44.51811" lon="1.19309">
        <ele>112.61</ele>
        <time>2017-09-28T12:34:46Z</time>
      </trkpt>
      <trkpt lat="44.5183" lon="1.19304">
        <ele>113.09</ele>
        <time>2017-09-28T12:35:02Z</time>
      </trkpt>
      <trkpt lat="44.51848" lon="1.1931">
        <ele>113.09</ele>
        <time>2017-09-28T12:35:17Z</time>
      </trkpt>
      <trkpt lat="44.51866" lon="1.19318">
        <ele>113.09</ele>
        <time>2017-09-28T12:35:32Z</time>
      </trkpt>
      <trkpt lat="44.51884" lon="1.19325">
        <ele>113.09</ele>
        <time>2017-09-28T12:35:47Z</time>
      </trkpt>
      <trkpt lat="44.51903" lon="1.19334">
        <ele>113.09</ele>
        <time>2017-09-28T12:36:02Z</time>
      </trkpt>
      <trkpt lat="44.51919" lon="1.19344">
        <ele>113.09</ele>
        <time>2017-09-28T12:36:16Z</time>
      </trkpt>
      <trkpt lat="44.51936" lon="1.19354">
        <ele>113.09</ele>
        <time>2017-09-28T12:36:31Z</time>
      </trkpt>
      <trkpt lat="44.51953" lon="1.19369">
        <ele>113.09</ele>
        <time>2017-09-28T12:36:46Z</time>
      </trkpt>
      <trkpt lat="44.5197" lon="1.19379">
        <ele>113.09</ele>
        <time>2017-09-28T12:37:00Z</time>
      </trkpt>
      <trkpt lat="44.51987" lon="1.19388">
        <ele>113.09</ele>
        <time>2017-09-28T12:37:15Z</time>
      </trkpt>
      <trkpt lat="44.52006" lon="1.19397">
        <ele>113.09</ele>
        <time>2017-09-28T12:37:30Z</time>
      </trkpt>
      <trkpt lat="44.52026" lon="1.19407">
        <ele>113.09</ele>
        <time>2017-09-28T12:37:46Z</time>
      </trkpt>
      <trkpt lat="44.52044" lon="1.19416">
        <ele>113.09</ele>
        <time>2017-09-28T12:38:04Z</time>
      </trkpt>
      <trkpt lat="44.52064" lon="1.19427">
        <ele>113.09</ele>
        <time>2017-09-28T12:38:22Z</time>
      </trkpt>
      <trkpt lat="44.52083" lon="1.19436">
        <ele>113.57</ele>
        <time>2017-09-28T12:38:40Z</time>
      </trkpt>
      <trkpt lat="44.52101" lon="1.19443">
        <ele>113.57</ele>
        <time>2017-09-28T12:38:58Z</time>
      </trkpt>
      <trkpt lat="44.52119" lon="1.19453">
        <ele>113.57</ele>
        <time>2017-09-28T12:39:15Z</time>
      </trkpt>
      <trkpt lat="44.52138" lon="1.19461">
        <ele>113.57</ele>
        <time>2017-09-28T12:39:33Z</time>
      </trkpt>
      <trkpt lat="44.52156" lon="1.19467">
        <ele>113.57</ele>
        <time>2017-09-28T12:39:53Z</time>
      </trkpt>
      <trkpt lat="44.52174" lon="1.19474">
        <ele>114.05</ele>
        <time>2017-09-28T12:40:12Z</time>
      </trkpt>
      <trkpt lat="44.52192" lon="1.1948">
        <ele>114.05</ele>
        <time>2017-09-28T12:40:30Z</time>
      </trkpt>
      <trkpt lat="44.52212" lon="1.19476">
        <ele>114.05</ele>
        <time>2017-09-28T12:40:47Z</time>
      </trkpt>
      <trkpt lat="44.52227" lon="1.19466">
        <ele>143.37</ele>
        <time>2017-09-28T12:41:04Z</time>
      </trkpt>
      <trkpt lat="44.52243" lon="1.19452">
        <ele>144.34</ele>
        <time>2017-09-28T12:41:21Z</time>
      </trkpt>
      <trkpt lat="44.52259" lon="1.19437">
        <ele>145.78</ele>
        <time>2017-09-28T12:41:38Z</time>
      </trkpt>
      <trkpt lat="44.52275" lon="1.19425">
        <ele>147.7</ele>
        <time>2017-09-28T12:41:56Z</time>
      </trkpt>
      <trkpt lat="44.52293" lon="1.19412">
        <ele>148.66</ele>
        <time>2017-09-28T12:42:13Z</time>
      </trkpt>
      <trkpt lat="44.52312" lon="1.19419">
        <ele>150.1</ele>
        <time>2017-09-28T12:42:31Z</time>
      </trkpt>
      <trkpt lat="44.52323" lon="1.19442">
        <ele>151.54</ele>
        <time>2017-09-28T12:42:50Z</time>
      </trkpt>
      <trkpt lat="44.52321" lon="1.19471">
        <ele>152.99</ele>
        <time>2017-09-28T12:43:08Z</time>
      </trkpt>
      <trkpt lat="44.52317" lon="1.19496">
        <ele>153.47</ele>
        <time>2017-09-28T12:43:27Z</time>
      </trkpt>
      <trkpt lat="44.52312" lon="1.19522">
        <ele>154.91</ele>
        <time>2017-09-28T12:43:45Z</time>
      </trkpt>
      <trkpt lat="44.52313" lon="1.19543">
        <ele>155.87</ele>
        <time>2017-09-28T12:46:56Z</time>
      </trkpt>
      <trkpt lat="44.5233" lon="1.19557">
        <ele>159.72</ele>
        <time>2017-09-28T12:47:33Z</time>
      </trkpt>
      <trkpt lat="44.52347" lon="1.19569">
        <ele>165.48</ele>
        <time>2017-09-28T12:48:09Z</time>
      </trkpt>
      <trkpt lat="44.52361" lon="1.19595">
        <ele>169.33</ele>
        <time>2017-09-28T12:48:43Z</time>
      </trkpt>
      <trkpt lat="44.52373" lon="1.19624">
        <ele>172.21</ele>
        <time>2017-09-28T12:49:14Z</time>
      </trkpt>
      <trkpt lat="44.52387" lon="1.1965">
        <ele>175.1</ele>
        <time>2017-09-28T12:49:41Z</time>
      </trkpt>
      <trkpt lat="44.524" lon="1.19671">
        <ele>177.5</ele>
        <time>2017-09-28T12:50:05Z</time>
      </trkpt>
      <trkpt lat="44.52413" lon="1.19691">
        <ele>180.38</ele>
        <time>2017-09-28T12:50:30Z</time>
      </trkpt>
      <trkpt lat="44.52426" lon="1.19715">
        <ele>182.79</ele>
        <time>2017-09-28T12:50:58Z</time>
      </trkpt>
      <trkpt lat="44.52442" lon="1.19737">
        <ele>185.19</ele>
        <time>2017-09-28T12:51:26Z</time>
      </trkpt>
      <trkpt lat="44.52459" lon="1.19757">
        <ele>187.59</ele>
        <time>2017-09-28T12:51:56Z</time>
      </trkpt>
      <trkpt lat="44.52481" lon="1.19772">
        <ele>190</ele>
        <time>2017-09-28T12:52:26Z</time>
      </trkpt>
      <trkpt lat="44.52504" lon="1.19777">
        <ele>191.44</ele>
        <time>2017-09-28T12:52:52Z</time>
      </trkpt>
      <trkpt lat="44.52523" lon="1.1977">
        <ele>193.36</ele>
        <time>2017-09-28T12:53:13Z</time>
      </trkpt>
      <trkpt lat="44.52543" lon="1.19755">
        <ele>194.8</ele>
        <time>2017-09-28T12:53:38Z</time>
      </trkpt>
      <trkpt lat="44.52569" lon="1.19741">
        <ele>196.25</ele>
        <time>2017-09-28T12:54:05Z</time>
      </trkpt>
      <trkpt lat="44.52595" lon="1.19738">
        <ele>197.69</ele>
        <time>2017-09-28T12:54:28Z</time>
      </trkpt>
      <trkpt lat="44.52621" lon="1.19742">
        <ele>199.13</ele>
        <time>2017-09-28T12:54:52Z</time>
      </trkpt>
      <trkpt lat="44.52646" lon="1.19747">
        <ele>200.57</ele>
        <time>2017-09-28T12:55:16Z</time>
      </trkpt>
      <trkpt lat="44.5267" lon="1.19753">
        <ele>201.53</ele>
        <time>2017-09-28T12:55:39Z</time>
      </trkpt>
      <trkpt lat="44.52694" lon="1.19757">
        <ele>202.98</ele>
        <time>2017-09-28T12:56:15Z</time>
      </trkpt>
      <trkpt lat="44.52719" lon="1.19762">
        <ele>205.38</ele>
        <time>2017-09-28T12:56:41Z</time>
      </trkpt>
      <trkpt lat="44.52743" lon="1.19767">
        <ele>207.78</ele>
        <time>2017-09-28T12:57:09Z</time>
      </trkpt>
      <trkpt lat="44.52767" lon="1.1977">
        <ele>209.22</ele>
        <time>2017-09-28T12:57:35Z</time>
      </trkpt>
      <trkpt lat="44.5279" lon="1.19773">
        <ele>210.67</ele>
        <time>2017-09-28T12:57:54Z</time>
      </trkpt>
      <trkpt lat="44.52812" lon="1.19778">
        <ele>211.15</ele>
        <time>2017-09-28T12:58:12Z</time>
      </trkpt>
      <trkpt lat="44.5283" lon="1.1979">
        <ele>211.15</ele>
        <time>2017-09-28T12:58:29Z</time>
      </trkpt>
      <trkpt lat="44.52848" lon="1.19801">
        <ele>211.15</ele>
        <time>2017-09-28T12:58:46Z</time>
      </trkpt>
      <trkpt lat="44.52866" lon="1.19809">
        <ele>211.15</ele>
        <time>2017-09-28T12:59:02Z</time>
      </trkpt>
      <trkpt lat="44.52885" lon="1.19816">
        <ele>211.15</ele>
        <time>2017-09-28T12:59:19Z</time>
      </trkpt>
      <trkpt lat="44.52904" lon="1.19824">
        <ele>213.07</ele>
        <time>2017-09-28T12:59:37Z</time>
      </trkpt>
      <trkpt lat="44.52923" lon="1.19829">
        <ele>215.47</ele>
        <time>2017-09-28T12:59:57Z</time>
      </trkpt>
      <trkpt lat="44.52942" lon="1.19832">
        <ele>217.4</ele>
        <time>2017-09-28T13:00:19Z</time>
      </trkpt>
      <trkpt lat="44.52962" lon="1.19832">
        <ele>219.8</ele>
        <time>2017-09-28T13:00:41Z</time>
      </trkpt>
      <trkpt lat="44.52981" lon="1.19833">
        <ele>222.68</ele>
        <time>2017-09-28T13:01:08Z</time>
      </trkpt>
      <trkpt lat="44.53001" lon="1.19832">
        <ele>225.09</ele>
        <time>2017-09-28T13:01:28Z</time>
      </trkpt>
      <trkpt lat="44.5302" lon="1.19833">
        <ele>227.97</ele>
        <time>2017-09-28T13:01:51Z</time>
      </trkpt>
      <trkpt lat="44.53039" lon="1.19836">
        <ele>229.89</ele>
        <time>2017-09-28T13:02:12Z</time>
      </trkpt>
      <trkpt lat="44.53059" lon="1.19839">
        <ele>231.81</ele>
        <time>2017-09-28T13:02:33Z</time>
      </trkpt>
      <trkpt lat="44.53078" lon="1.19843">
        <ele>232.78</ele>
        <time>2017-09-28T13:02:53Z</time>
      </trkpt>
      <trkpt lat="44.53094" lon="1.19859">
        <ele>232.3</ele>
        <time>2017-09-28T13:05:11Z</time>
      </trkpt>
      <trkpt lat="44.53083" lon="1.19887">
        <ele>230.85</ele>
        <time>2017-09-28T13:05:35Z</time>
      </trkpt>
      <trkpt lat="44.53074" lon="1.19913">
        <ele>228.93</ele>
        <time>2017-09-28T13:05:56Z</time>
      </trkpt>
      <trkpt lat="44.53067" lon="1.19938">
        <ele>227.49</ele>
        <time>2017-09-28T13:06:16Z</time>
      </trkpt>
      <trkpt lat="44.53056" lon="1.19961">
        <ele>226.53</ele>
        <time>2017-09-28T13:06:35Z</time>
      </trkpt>
      <trkpt lat="44.53035" lon="1.19972">
        <ele>224.61</ele>
        <time>2017-09-28T13:06:59Z</time>
      </trkpt>
      <trkpt lat="44.53026" lon="1.20003">
        <ele>220.76</ele>
        <time>2017-09-28T13:07:28Z</time>
      </trkpt>
      <trkpt lat="44.53026" lon="1.20037">
        <ele>217.88</ele>
        <time>2017-09-28T13:07:56Z</time>
      </trkpt>
      <trkpt lat="44.5302" lon="1.20075">
        <ele>213.55</ele>
        <time>2017-09-28T13:08:27Z</time>
      </trkpt>
      <trkpt lat="44.53016" lon="1.20112">
        <ele>211.15</ele>
        <time>2017-09-28T13:08:52Z</time>
      </trkpt>
      <trkpt lat="44.52999" lon="1.20137">
        <ele>210.19</ele>
        <time>2017-09-28T13:09:14Z</time>
      </trkpt>
      <trkpt lat="44.52972" lon="1.2015">
        <ele>208.74</ele>
        <time>2017-09-28T13:09:40Z</time>
      </trkpt>
      <trkpt lat="44.5295" lon="1.20167">
        <ele>207.78</ele>
        <time>2017-09-28T13:10:02Z</time>
      </trkpt>
      <trkpt lat="44.52929" lon="1.20192">
        <ele>205.86</ele>
        <time>2017-09-28T13:10:28Z</time>
      </trkpt>
      <trkpt lat="44.52905" lon="1.20214">
        <ele>202.49</ele>
        <time>2017-09-28T13:10:52Z</time>
      </trkpt>
      <trkpt lat="44.52881" lon="1.20209">
        <ele>200.09</ele>
        <time>2017-09-28T13:11:16Z</time>
      </trkpt>
      <trkpt lat="44.52863" lon="1.20186">
        <ele>197.69</ele>
        <time>2017-09-28T13:11:39Z</time>
      </trkpt>
      <trkpt lat="44.52849" lon="1.20154">
        <ele>193.36</ele>
        <time>2017-09-28T13:12:06Z</time>
      </trkpt>
      <trkpt lat="44.52842" lon="1.20121">
        <ele>190.48</ele>
        <time>2017-09-28T13:12:30Z</time>
      </trkpt>
      <trkpt lat="44.52835" lon="1.20087">
        <ele>188.08</ele>
        <time>2017-09-28T13:12:53Z</time>
      </trkpt>
      <trkpt lat="44.52826" lon="1.20055">
        <ele>183.75</ele>
        <time>2017-09-28T13:13:21Z</time>
      </trkpt>
      <trkpt lat="44.52806" lon="1.20068">
        <ele>180.38</ele>
        <time>2017-09-28T13:13:47Z</time>
      </trkpt>
      <trkpt lat="44.52792" lon="1.20095">
        <ele>177.02</ele>
        <time>2017-09-28T13:14:13Z</time>
      </trkpt>
      <trkpt lat="44.52787" lon="1.20125">
        <ele>172.21</ele>
        <time>2017-09-28T13:14:43Z</time>
      </trkpt>
      <trkpt lat="44.52772" lon="1.20152">
        <ele>168.37</ele>
        <time>2017-09-28T13:15:09Z</time>
      </trkpt>
      <trkpt lat="44.52754" lon="1.20172">
        <ele>165</ele>
        <time>2017-09-28T13:15:37Z</time>
      </trkpt>
      <trkpt lat="44.52733" lon="1.20186">
        <ele>161.64</ele>
        <time>2017-09-28T13:16:05Z</time>
      </trkpt>
      <trkpt lat="44.52713" lon="1.20201">
        <ele>158.27</ele>
        <time>2017-09-28T13:16:30Z</time>
      </trkpt>
      <trkpt lat="44.52696" lon="1.20217">
        <ele>155.39</ele>
        <time>2017-09-28T13:16:52Z</time>
      </trkpt>
      <trkpt lat="44.52678" lon="1.20234">
        <ele>152.03</ele>
        <time>2017-09-28T13:17:13Z</time>
      </trkpt>
      <trkpt lat="44.52665" lon="1.20255">
        <ele>149.62</ele>
        <time>2017-09-28T13:17:34Z</time>
      </trkpt>
      <trkpt lat="44.52653" lon="1.20277">
        <ele>147.22</ele>
        <time>2017-09-28T13:17:55Z</time>
      </trkpt>
      <trkpt lat="44.52646" lon="1.203">
        <ele>145.3</ele>
        <time>2017-09-28T13:18:15Z</time>
      </trkpt>
      <trkpt lat="44.52637" lon="1.20325">
        <ele>142.89</ele>
        <time>2017-09-28T13:18:35Z</time>
      </trkpt>
      <trkpt lat="44.52624" lon="1.20345">
        <ele>141.45</ele>
        <time>2017-09-28T13:18:54Z</time>
      </trkpt>
      <trkpt lat="44.52605" lon="1.20355">
        <ele>140.01</ele>
        <time>2017-09-28T13:19:14Z</time>
      </trkpt>
      <trkpt lat="44.52591" lon="1.20372">
        <ele>139.53</ele>
        <time>2017-09-28T13:19:34Z</time>
      </trkpt>
      <trkpt lat="44.5258" lon="1.20392">
        <ele>139.53</ele>
        <time>2017-09-28T13:20:31Z</time>
      </trkpt>
      <trkpt lat="44.52595" lon="1.20403">
        <ele>139.53</ele>
        <time>2017-09-28T13:20:54Z</time>
      </trkpt>
      <trkpt lat="44.52611" lon="1.20418">
        <ele>139.53</ele>
        <time>2017-09-28T13:21:13Z</time>
      </trkpt>
      <trkpt lat="44.52627" lon="1.20433">
        <ele>139.53</ele>
        <time>2017-09-28T13:21:31Z</time>
      </trkpt>
      <trkpt lat="44.52642" lon="1.20447">
        <ele>139.05</ele>
        <time>2017-09-28T13:21:50Z</time>
      </trkpt>
      <trkpt lat="44.52659" lon="1.20462">
        <ele>140.49</ele>
        <time>2017-09-28T13:22:07Z</time>
      </trkpt>
      <trkpt lat="44.52676" lon="1.20476">
        <ele>140.97</ele>
        <time>2017-09-28T13:22:25Z</time>
      </trkpt>
      <trkpt lat="44.52692" lon="1.20491">
        <ele>140.97</ele>
        <time>2017-09-28T13:22:43Z</time>
      </trkpt>
      <trkpt lat="44.52708" lon="1.20506">
        <ele>141.45</ele>
        <time>2017-09-28T13:23:00Z</time>
      </trkpt>
      <trkpt lat="44.52725" lon="1.20518">
        <ele>141.45</ele>
        <time>2017-09-28T13:23:17Z</time>
      </trkpt>
      <trkpt lat="44.5273" lon="1.20542">
        <ele>141.93</ele>
        <time>2017-09-28T13:23:34Z</time>
      </trkpt>
      <trkpt lat="44.52731" lon="1.20572">
        <ele>142.89</ele>
        <time>2017-09-28T13:23:54Z</time>
      </trkpt>
      <trkpt lat="44.52726" lon="1.20598">
        <ele>144.82</ele>
        <time>2017-09-28T13:24:12Z</time>
      </trkpt>
      <trkpt lat="44.52718" lon="1.20622">
        <ele>145.78</ele>
        <time>2017-09-28T13:24:28Z</time>
      </trkpt>
      <trkpt lat="44.52708" lon="1.20646">
        <ele>146.74</ele>
        <time>2017-09-28T13:24:45Z</time>
      </trkpt>
      <trkpt lat="44.52698" lon="1.2067">
        <ele>147.7</ele>
        <time>2017-09-28T13:25:03Z</time>
      </trkpt>
      <trkpt lat="44.52693" lon="1.20696">
        <ele>148.18</ele>
        <time>2017-09-28T13:25:20Z</time>
      </trkpt>
      <trkpt lat="44.5269" lon="1.20723">
        <ele>148.66</ele>
        <time>2017-09-28T13:25:37Z</time>
      </trkpt>
      <trkpt lat="44.52686" lon="1.2075">
        <ele>149.14</ele>
        <time>2017-09-28T13:25:54Z</time>
      </trkpt>
      <trkpt lat="44.52678" lon="1.20776">
        <ele>149.14</ele>
        <time>2017-09-28T13:26:12Z</time>
      </trkpt>
      <trkpt lat="44.5267" lon="1.20802">
        <ele>150.1</ele>
        <time>2017-09-28T13:26:29Z</time>
      </trkpt>
      <trkpt lat="44.5266" lon="1.20827">
        <ele>151.06</ele>
        <time>2017-09-28T13:26:47Z</time>
      </trkpt>
      <trkpt lat="44.52647" lon="1.20853">
        <ele>152.03</ele>
        <time>2017-09-28T13:27:06Z</time>
      </trkpt>
      <trkpt lat="44.52635" lon="1.20875">
        <ele>153.47</ele>
        <time>2017-09-28T13:27:23Z</time>
      </trkpt>
      <trkpt lat="44.52625" lon="1.20899">
        <ele>153.95</ele>
        <time>2017-09-28T13:27:40Z</time>
      </trkpt>
      <trkpt lat="44.52615" lon="1.20923">
        <ele>154.91</ele>
        <time>2017-09-28T13:27:56Z</time>
      </trkpt>
      <trkpt lat="44.52601" lon="1.20945">
        <ele>155.87</ele>
        <time>2017-09-28T13:28:12Z</time>
      </trkpt>
      <trkpt lat="44.52594" lon="1.2097">
        <ele>157.79</ele>
        <time>2017-09-28T13:28:33Z</time>
      </trkpt>
      <trkpt lat="44.52603" lon="1.20996">
        <ele>158.75</ele>
        <time>2017-09-28T13:28:58Z</time>
      </trkpt>
      <trkpt lat="44.52611" lon="1.21021">
        <ele>160.68</ele>
        <time>2017-09-28T13:29:17Z</time>
      </trkpt>
      <trkpt lat="44.52616" lon="1.21052">
        <ele>163.08</ele>
        <time>2017-09-28T13:29:40Z</time>
      </trkpt>
      <trkpt lat="44.52611" lon="1.21091">
        <ele>165.48</ele>
        <time>2017-09-28T13:30:07Z</time>
      </trkpt>
      <trkpt lat="44.52628" lon="1.21104">
        <ele>168.85</ele>
        <time>2017-09-28T13:36:55Z</time>
      </trkpt>
      <trkpt lat="44.52653" lon="1.21107">
        <ele>171.73</ele>
        <time>2017-09-28T13:37:24Z</time>
      </trkpt>
      <trkpt lat="44.52671" lon="1.21122">
        <ele>174.14</ele>
        <time>2017-09-28T13:37:49Z</time>
      </trkpt>
      <trkpt lat="44.5269" lon="1.21142">
        <ele>177.02</ele>
        <time>2017-09-28T13:38:16Z</time>
      </trkpt>
      <trkpt lat="44.5271" lon="1.21157">
        <ele>178.94</ele>
        <time>2017-09-28T13:38:40Z</time>
      </trkpt>
      <trkpt lat="44.52731" lon="1.21173">
        <ele>182.31</ele>
        <time>2017-09-28T13:39:09Z</time>
      </trkpt>
      <trkpt lat="44.52749" lon="1.21194">
        <ele>184.71</ele>
        <time>2017-09-28T13:39:34Z</time>
      </trkpt>
      <trkpt lat="44.52765" lon="1.21217">
        <ele>187.59</ele>
        <time>2017-09-28T13:40:00Z</time>
      </trkpt>
      <trkpt lat="44.52779" lon="1.21244">
        <ele>190</ele>
        <time>2017-09-28T13:40:27Z</time>
      </trkpt>
      <trkpt lat="44.52792" lon="1.2127">
        <ele>192.88</ele>
        <time>2017-09-28T13:40:53Z</time>
      </trkpt>
      <trkpt lat="44.52804" lon="1.21299">
        <ele>194.8</ele>
        <time>2017-09-28T13:41:19Z</time>
      </trkpt>
      <trkpt lat="44.52816" lon="1.21327">
        <ele>197.69</ele>
        <time>2017-09-28T13:41:46Z</time>
      </trkpt>
      <trkpt lat="44.52822" lon="1.2136">
        <ele>200.09</ele>
        <time>2017-09-28T13:42:13Z</time>
      </trkpt>
      <trkpt lat="44.52815" lon="1.21397">
        <ele>202.98</ele>
        <time>2017-09-28T13:42:44Z</time>
      </trkpt>
      <trkpt lat="44.52798" lon="1.21418">
        <ele>205.38</ele>
        <time>2017-09-28T13:43:12Z</time>
      </trkpt>
      <trkpt lat="44.52788" lon="1.21446">
        <ele>207.3</ele>
        <time>2017-09-28T13:43:38Z</time>
      </trkpt>
      <trkpt lat="44.52783" lon="1.21477">
        <ele>209.7</ele>
        <time>2017-09-28T13:44:04Z</time>
      </trkpt>
      <trkpt lat="44.5279" lon="1.21506">
        <ele>213.55</ele>
        <time>2017-09-28T13:44:31Z</time>
      </trkpt>
      <trkpt lat="44.52806" lon="1.21528">
        <ele>215.95</ele>
        <time>2017-09-28T13:45:00Z</time>
      </trkpt>
      <trkpt lat="44.52829" lon="1.21539">
        <ele>218.84</ele>
        <time>2017-09-28T13:45:27Z</time>
      </trkpt>
      <trkpt lat="44.52851" lon="1.2155">
        <ele>221.24</ele>
        <time>2017-09-28T13:45:49Z</time>
      </trkpt>
      <trkpt lat="44.52865" lon="1.21566">
        <ele>223.16</ele>
        <time>2017-09-28T13:46:09Z</time>
      </trkpt>
      <trkpt lat="44.52861" lon="1.21597">
        <ele>225.09</ele>
        <time>2017-09-28T13:46:33Z</time>
      </trkpt>
      <trkpt lat="44.52856" lon="1.2163">
        <ele>227.97</ele>
        <time>2017-09-28T13:46:56Z</time>
      </trkpt>
      <trkpt lat="44.52853" lon="1.21661">
        <ele>230.37</ele>
        <time>2017-09-28T13:47:18Z</time>
      </trkpt>
      <trkpt lat="44.52848" lon="1.21694">
        <ele>233.26</ele>
        <time>2017-09-28T13:47:48Z</time>
      </trkpt>
      <trkpt lat="44.52843" lon="1.21726">
        <ele>235.66</ele>
        <time>2017-09-28T13:48:12Z</time>
      </trkpt>
      <trkpt lat="44.52838" lon="1.21757">
        <ele>238.54</ele>
        <time>2017-09-28T13:48:40Z</time>
      </trkpt>
      <trkpt lat="44.52832" lon="1.21791">
        <ele>241.91</ele>
        <time>2017-09-28T13:49:10Z</time>
      </trkpt>
      <trkpt lat="44.52827" lon="1.21827">
        <ele>243.35</ele>
        <time>2017-09-28T13:49:36Z</time>
      </trkpt>
      <trkpt lat="44.52827" lon="1.21863">
        <ele>244.31</ele>
        <time>2017-09-28T13:50:00Z</time>
      </trkpt>
      <trkpt lat="44.52836" lon="1.21878">
        <ele>244.79</ele>
        <time>2017-09-28T13:50:38Z</time>
      </trkpt>
      <trkpt lat="44.52832" lon="1.2188">
        <ele>244.79</ele>
        <time>2017-09-28T13:51:54Z</time>
      </trkpt>
      <trkpt lat="44.5283" lon="1.21865">
        <ele>247.2</ele>
        <time>2017-09-28T13:56:40Z</time>
      </trkpt>
      <trkpt lat="44.52826" lon="1.21873">
        <ele>248.64</ele>
        <time>2017-09-28T14:01:00Z</time>
      </trkpt>
      <trkpt lat="44.52813" lon="1.21895">
        <ele>248.16</ele>
        <time>2017-09-28T14:02:52Z</time>
      </trkpt>
      <trkpt lat="44.52791" lon="1.21906">
        <ele>248.16</ele>
        <time>2017-09-28T14:03:14Z</time>
      </trkpt>
      <trkpt lat="44.52772" lon="1.21918">
        <ele>249.12</ele>
        <time>2017-09-28T14:03:33Z</time>
      </trkpt>
      <trkpt lat="44.52752" lon="1.21929">
        <ele>249.6</ele>
        <time>2017-09-28T14:03:54Z</time>
      </trkpt>
      <trkpt lat="44.52731" lon="1.21939">
        <ele>250.56</ele>
        <time>2017-09-28T14:04:16Z</time>
      </trkpt>
      <trkpt lat="44.52707" lon="1.21949">
        <ele>251.52</ele>
        <time>2017-09-28T14:04:40Z</time>
      </trkpt>
      <trkpt lat="44.527" lon="1.21968">
        <ele>252</ele>
        <time>2017-09-28T14:05:05Z</time>
      </trkpt>
      <trkpt lat="44.52708" lon="1.21984">
        <ele>249.12</ele>
        <time>2017-09-28T14:05:59Z</time>
      </trkpt>
      <trkpt lat="44.52695" lon="1.2196">
        <ele>252</ele>
        <time>2017-09-28T14:06:23Z</time>
      </trkpt>
      <trkpt lat="44.52673" lon="1.21966">
        <ele>252.48</ele>
        <time>2017-09-28T14:06:46Z</time>
      </trkpt>
      <trkpt lat="44.52654" lon="1.21977">
        <ele>253.44</ele>
        <time>2017-09-28T14:07:05Z</time>
      </trkpt>
      <trkpt lat="44.52635" lon="1.21988">
        <ele>253.44</ele>
        <time>2017-09-28T14:07:26Z</time>
      </trkpt>
      <trkpt lat="44.52614" lon="1.22001">
        <ele>253.93</ele>
        <time>2017-09-28T14:07:47Z</time>
      </trkpt>
      <trkpt lat="44.52594" lon="1.2201">
        <ele>253.93</ele>
        <time>2017-09-28T14:08:09Z</time>
      </trkpt>
      <trkpt lat="44.52573" lon="1.22019">
        <ele>254.89</ele>
        <time>2017-09-28T14:08:30Z</time>
      </trkpt>
      <trkpt lat="44.52554" lon="1.22029">
        <ele>255.37</ele>
        <time>2017-09-28T14:08:50Z</time>
      </trkpt>
      <trkpt lat="44.52534" lon="1.22039">
        <ele>255.85</ele>
        <time>2017-09-28T14:09:09Z</time>
      </trkpt>
      <trkpt lat="44.52515" lon="1.22049">
        <ele>256.33</ele>
        <time>2017-09-28T14:09:29Z</time>
      </trkpt>
      <trkpt lat="44.52494" lon="1.22055">
        <ele>257.29</ele>
        <time>2017-09-28T14:09:49Z</time>
      </trkpt>
      <trkpt lat="44.52472" lon="1.22062">
        <ele>258.25</ele>
        <time>2017-09-28T14:10:12Z</time>
      </trkpt>
      <trkpt lat="44.52448" lon="1.22069">
        <ele>260.17</ele>
        <time>2017-09-28T14:10:37Z</time>
      </trkpt>
      <trkpt lat="44.52428" lon="1.22076">
        <ele>261.62</ele>
        <time>2017-09-28T14:10:59Z</time>
      </trkpt>
      <trkpt lat="44.52408" lon="1.22076">
        <ele>263.54</ele>
        <time>2017-09-28T14:11:21Z</time>
      </trkpt>
      <trkpt lat="44.52387" lon="1.22079">
        <ele>264.98</ele>
        <time>2017-09-28T14:11:43Z</time>
      </trkpt>
      <trkpt lat="44.52367" lon="1.2209">
        <ele>266.9</ele>
        <time>2017-09-28T14:12:06Z</time>
      </trkpt>
      <trkpt lat="44.52347" lon="1.221">
        <ele>268.83</ele>
        <time>2017-09-28T14:12:27Z</time>
      </trkpt>
      <trkpt lat="44.52327" lon="1.22109">
        <ele>269.79</ele>
        <time>2017-09-28T14:12:47Z</time>
      </trkpt>
      <trkpt lat="44.52307" lon="1.22115">
        <ele>271.23</ele>
        <time>2017-09-28T14:13:07Z</time>
      </trkpt>
      <trkpt lat="44.52286" lon="1.2212">
        <ele>272.67</ele>
        <time>2017-09-28T14:13:28Z</time>
      </trkpt>
      <trkpt lat="44.52265" lon="1.22124">
        <ele>273.15</ele>
        <time>2017-09-28T14:13:48Z</time>
      </trkpt>
      <trkpt lat="44.52243" lon="1.22127">
        <ele>274.11</ele>
        <time>2017-09-28T14:14:21Z</time>
      </trkpt>
      <trkpt lat="44.52236" lon="1.22155">
        <ele>276.52</ele>
        <time>2017-09-28T14:14:53Z</time>
      </trkpt>
      <trkpt lat="44.52242" lon="1.22137">
        <ele>276.04</ele>
        <time>2017-09-28T14:16:31Z</time>
      </trkpt>
      <trkpt lat="44.52229" lon="1.22121">
        <ele>275.07</ele>
        <time>2017-09-28T14:17:40Z</time>
      </trkpt>
      <trkpt lat="44.52209" lon="1.22114">
        <ele>273.63</ele>
        <time>2017-09-28T14:18:01Z</time>
      </trkpt>
      <trkpt lat="44.52193" lon="1.22096">
        <ele>272.19</ele>
        <time>2017-09-28T14:18:22Z</time>
      </trkpt>
      <trkpt lat="44.52176" lon="1.22076">
        <ele>269.79</ele>
        <time>2017-09-28T14:18:44Z</time>
      </trkpt>
      <trkpt lat="44.52158" lon="1.22055">
        <ele>267.38</ele>
        <time>2017-09-28T14:19:06Z</time>
      </trkpt>
      <trkpt lat="44.52137" lon="1.22039">
        <ele>266.42</ele>
        <time>2017-09-28T14:19:26Z</time>
      </trkpt>
      <trkpt lat="44.52121" lon="1.22019">
        <ele>264.98</ele>
        <time>2017-09-28T14:19:47Z</time>
      </trkpt>
      <trkpt lat="44.52105" lon="1.21995">
        <ele>262.58</ele>
        <time>2017-09-28T14:20:08Z</time>
      </trkpt>
      <trkpt lat="44.5209" lon="1.21973">
        <ele>261.62</ele>
        <time>2017-09-28T14:20:28Z</time>
      </trkpt>
      <trkpt lat="44.52074" lon="1.21954">
        <ele>260.17</ele>
        <time>2017-09-28T14:20:44Z</time>
      </trkpt>
      <trkpt lat="44.52059" lon="1.21935">
        <ele>259.21</ele>
        <time>2017-09-28T14:21:02Z</time>
      </trkpt>
      <trkpt lat="44.52043" lon="1.21918">
        <ele>258.25</ele>
        <time>2017-09-28T14:21:20Z</time>
      </trkpt>
      <trkpt lat="44.52023" lon="1.21903">
        <ele>257.29</ele>
        <time>2017-09-28T14:21:39Z</time>
      </trkpt>
      <trkpt lat="44.51999" lon="1.21893">
        <ele>256.33</ele>
        <time>2017-09-28T14:22:00Z</time>
      </trkpt>
      <trkpt lat="44.51975" lon="1.21892">
        <ele>255.85</ele>
        <time>2017-09-28T14:22:20Z</time>
      </trkpt>
      <trkpt lat="44.51951" lon="1.21893">
        <ele>255.85</ele>
        <time>2017-09-28T14:22:42Z</time>
      </trkpt>
      <trkpt lat="44.51927" lon="1.21904">
        <ele>257.77</ele>
        <time>2017-09-28T14:23:03Z</time>
      </trkpt>
      <trkpt lat="44.51906" lon="1.21919">
        <ele>260.65</ele>
        <time>2017-09-28T14:23:24Z</time>
      </trkpt>
      <trkpt lat="44.51883" lon="1.21926">
        <ele>262.1</ele>
        <time>2017-09-28T14:23:48Z</time>
      </trkpt>
      <trkpt lat="44.51861" lon="1.21935">
        <ele>263.54</ele>
        <time>2017-09-28T14:24:34Z</time>
      </trkpt>
      <trkpt lat="44.51839" lon="1.21929">
        <ele>262.58</ele>
        <time>2017-09-28T14:25:01Z</time>
      </trkpt>
      <trkpt lat="44.51815" lon="1.21936">
        <ele>262.1</ele>
        <time>2017-09-28T14:25:30Z</time>
      </trkpt>
      <trkpt lat="44.51795" lon="1.21944">
        <ele>260.65</ele>
        <time>2017-09-28T14:25:54Z</time>
      </trkpt>
      <trkpt lat="44.51775" lon="1.21953">
        <ele>259.21</ele>
        <time>2017-09-28T14:26:16Z</time>
      </trkpt>
      <trkpt lat="44.51755" lon="1.21965">
        <ele>257.29</ele>
        <time>2017-09-28T14:26:42Z</time>
      </trkpt>
      <trkpt lat="44.51733" lon="1.21979">
        <ele>255.37</ele>
        <time>2017-09-28T14:27:06Z</time>
      </trkpt>
      <trkpt lat="44.51711" lon="1.21987">
        <ele>253.93</ele>
        <time>2017-09-28T14:27:29Z</time>
      </trkpt>
      <trkpt lat="44.51688" lon="1.21986">
        <ele>252</ele>
        <time>2017-09-28T14:27:52Z</time>
      </trkpt>
      <trkpt lat="44.51667" lon="1.21975">
        <ele>249.6</ele>
        <time>2017-09-28T14:28:14Z</time>
      </trkpt>
      <trkpt lat="44.51645" lon="1.21966">
        <ele>248.16</ele>
        <time>2017-09-28T14:28:37Z</time>
      </trkpt>
      <trkpt lat="44.51622" lon="1.21957">
        <ele>246.72</ele>
        <time>2017-09-28T14:29:02Z</time>
      </trkpt>
      <trkpt lat="44.51592" lon="1.21946">
        <ele>246.23</ele>
        <time>2017-09-28T14:29:41Z</time>
      </trkpt>
      <trkpt lat="44.5157" lon="1.21933">
        <ele>245.75</ele>
        <time>2017-09-28T14:30:05Z</time>
      </trkpt>
      <trkpt lat="44.51549" lon="1.2192">
        <ele>247.68</ele>
        <time>2017-09-28T14:30:31Z</time>
      </trkpt>
      <trkpt lat="44.51522" lon="1.21912">
        <ele>250.08</ele>
        <time>2017-09-28T14:31:01Z</time>
      </trkpt>
      <trkpt lat="44.51496" lon="1.21904">
        <ele>252.96</ele>
        <time>2017-09-28T14:31:29Z</time>
      </trkpt>
      <trkpt lat="44.51472" lon="1.21906">
        <ele>254.41</ele>
        <time>2017-09-28T14:31:56Z</time>
      </trkpt>
      <trkpt lat="44.51449" lon="1.2191">
        <ele>255.85</ele>
        <time>2017-09-28T14:32:19Z</time>
      </trkpt>
      <trkpt lat="44.51431" lon="1.21921">
        <ele>256.33</ele>
        <time>2017-09-28T14:33:23Z</time>
      </trkpt>
      <trkpt lat="44.51428" lon="1.21951">
        <ele>248.16</ele>
        <time>2017-09-28T14:34:01Z</time>
      </trkpt>
      <trkpt lat="44.51441" lon="1.21983">
        <ele>240.95</ele>
        <time>2017-09-28T14:34:35Z</time>
      </trkpt>
      <trkpt lat="44.51457" lon="1.22001">
        <ele>238.54</ele>
        <time>2017-09-28T14:35:04Z</time>
      </trkpt>
      <trkpt lat="44.51476" lon="1.22017">
        <ele>237.58</ele>
        <time>2017-09-28T14:35:37Z</time>
      </trkpt>
      <trkpt lat="44.51493" lon="1.22048">
        <ele>237.1</ele>
        <time>2017-09-28T14:36:10Z</time>
      </trkpt>
      <trkpt lat="44.51502" lon="1.22081">
        <ele>239.02</ele>
        <time>2017-09-28T14:36:35Z</time>
      </trkpt>
      <trkpt lat="44.51482" lon="1.22106">
        <ele>241.43</ele>
        <time>2017-09-28T14:37:00Z</time>
      </trkpt>
      <trkpt lat="44.51469" lon="1.22131">
        <ele>244.79</ele>
        <time>2017-09-28T14:37:25Z</time>
      </trkpt>
      <trkpt lat="44.51459" lon="1.22151">
        <ele>245.75</ele>
        <time>2017-09-28T14:37:46Z</time>
      </trkpt>
      <trkpt lat="44.51457" lon="1.22169">
        <ele>245.75</ele>
        <time>2017-09-28T14:38:42Z</time>
      </trkpt>
      <trkpt lat="44.51449" lon="1.22175">
        <ele>244.79</ele>
        <time>2017-09-28T14:40:19Z</time>
      </trkpt>
      <trkpt lat="44.51431" lon="1.22164">
        <ele>244.79</ele>
        <time>2017-09-28T14:40:49Z</time>
      </trkpt>
      <trkpt lat="44.51413" lon="1.22154">
        <ele>246.72</ele>
        <time>2017-09-28T14:41:12Z</time>
      </trkpt>
      <trkpt lat="44.51393" lon="1.22151">
        <ele>245.27</ele>
        <time>2017-09-28T14:41:35Z</time>
      </trkpt>
      <trkpt lat="44.51378" lon="1.2213">
        <ele>249.6</ele>
        <time>2017-09-28T14:42:08Z</time>
      </trkpt>
      <trkpt lat="44.51358" lon="1.22126">
        <ele>249.6</ele>
        <time>2017-09-28T14:42:27Z</time>
      </trkpt>
      <trkpt lat="44.5134" lon="1.2212">
        <ele>247.2</ele>
        <time>2017-09-28T14:42:47Z</time>
      </trkpt>
      <trkpt lat="44.51324" lon="1.22106">
        <ele>247.2</ele>
        <time>2017-09-28T14:43:10Z</time>
      </trkpt>
      <trkpt lat="44.51307" lon="1.22091">
        <ele>248.64</ele>
        <time>2017-09-28T14:43:36Z</time>
      </trkpt>
      <trkpt lat="44.51288" lon="1.22085">
        <ele>247.68</ele>
        <time>2017-09-28T14:43:53Z</time>
      </trkpt>
      <trkpt lat="44.5127" lon="1.22079">
        <ele>247.68</ele>
        <time>2017-09-28T14:44:11Z</time>
      </trkpt>
      <trkpt lat="44.51253" lon="1.22066">
        <ele>249.12</ele>
        <time>2017-09-28T14:44:29Z</time>
      </trkpt>
      <trkpt lat="44.51253" lon="1.22037">
        <ele>252.48</ele>
        <time>2017-09-28T14:44:54Z</time>
      </trkpt>
      <trkpt lat="44.51265" lon="1.2201">
        <ele>255.85</ele>
        <time>2017-09-28T14:45:17Z</time>
      </trkpt>
      <trkpt lat="44.5128" lon="1.21986">
        <ele>258.73</ele>
        <time>2017-09-28T14:45:41Z</time>
      </trkpt>
      <trkpt lat="44.51294" lon="1.21959">
        <ele>260.17</ele>
        <time>2017-09-28T14:46:05Z</time>
      </trkpt>
      <trkpt lat="44.51308" lon="1.21931">
        <ele>261.14</ele>
        <time>2017-09-28T14:46:26Z</time>
      </trkpt>
      <trkpt lat="44.51315" lon="1.21907">
        <ele>262.1</ele>
        <time>2017-09-28T14:46:46Z</time>
      </trkpt>
      <trkpt lat="44.51326" lon="1.21878">
        <ele>262.1</ele>
        <time>2017-09-28T14:47:08Z</time>
      </trkpt>
      <trkpt lat="44.51347" lon="1.21878">
        <ele>262.58</ele>
        <time>2017-09-28T14:47:35Z</time>
      </trkpt>
      <trkpt lat="44.51373" lon="1.21888">
        <ele>262.58</ele>
        <time>2017-09-28T14:47:58Z</time>
      </trkpt>
      <trkpt lat="44.51396" lon="1.219">
        <ele>261.14</ele>
        <time>2017-09-28T14:48:19Z</time>
      </trkpt>
      <trkpt lat="44.5142" lon="1.21906">
        <ele>259.21</ele>
        <time>2017-09-28T14:48:41Z</time>
      </trkpt>
      <trkpt lat="44.51435" lon="1.21895">
        <ele>259.21</ele>
        <time>2017-09-28T14:50:56Z</time>
      </trkpt>
      <trkpt lat="44.51435" lon="1.21863">
        <ele>259.69</ele>
        <time>2017-09-28T14:51:20Z</time>
      </trkpt>
      <trkpt lat="44.51431" lon="1.21834">
        <ele>259.69</ele>
        <time>2017-09-28T14:51:41Z</time>
      </trkpt>
      <trkpt lat="44.5144" lon="1.21806">
        <ele>258.73</ele>
        <time>2017-09-28T14:52:05Z</time>
      </trkpt>
      <trkpt lat="44.51448" lon="1.21774">
        <ele>256.81</ele>
        <time>2017-09-28T14:52:28Z</time>
      </trkpt>
      <trkpt lat="44.51453" lon="1.21744">
        <ele>254.89</ele>
        <time>2017-09-28T14:52:49Z</time>
      </trkpt>
      <trkpt lat="44.51457" lon="1.21714">
        <ele>252</ele>
        <time>2017-09-28T14:53:13Z</time>
      </trkpt>
      <trkpt lat="44.51463" lon="1.21684">
        <ele>250.08</ele>
        <time>2017-09-28T14:53:36Z</time>
      </trkpt>
      <trkpt lat="44.51471" lon="1.21652">
        <ele>247.2</ele>
        <time>2017-09-28T14:54:00Z</time>
      </trkpt>
      <trkpt lat="44.51478" lon="1.21624">
        <ele>244.79</ele>
        <time>2017-09-28T14:54:20Z</time>
      </trkpt>
      <trkpt lat="44.51483" lon="1.21594">
        <ele>242.87</ele>
        <time>2017-09-28T14:54:41Z</time>
      </trkpt>
      <trkpt lat="44.51488" lon="1.21563">
        <ele>240.47</ele>
        <time>2017-09-28T14:55:02Z</time>
      </trkpt>
      <trkpt lat="44.51493" lon="1.21533">
        <ele>239.02</ele>
        <time>2017-09-28T14:55:21Z</time>
      </trkpt>
      <trkpt lat="44.51479" lon="1.21523">
        <ele>239.02</ele>
        <time>2017-09-28T14:55:45Z</time>
      </trkpt>
      <trkpt lat="44.51457" lon="1.2153">
        <ele>241.91</ele>
        <time>2017-09-28T14:56:08Z</time>
      </trkpt>
      <trkpt lat="44.51434" lon="1.2154">
        <ele>243.35</ele>
        <time>2017-09-28T14:56:32Z</time>
      </trkpt>
      <trkpt lat="44.5141" lon="1.21546">
        <ele>244.79</ele>
        <time>2017-09-28T14:56:53Z</time>
      </trkpt>
      <trkpt lat="44.5139" lon="1.21558">
        <ele>245.75</ele>
        <time>2017-09-28T14:57:10Z</time>
      </trkpt>
      <trkpt lat="44.51372" lon="1.21569">
        <ele>246.23</ele>
        <time>2017-09-28T14:57:28Z</time>
      </trkpt>
      <trkpt lat="44.51349" lon="1.21577">
        <ele>246.23</ele>
        <time>2017-09-28T14:57:47Z</time>
      </trkpt>
      <trkpt lat="44.51327" lon="1.2158">
        <ele>244.31</ele>
        <time>2017-09-28T14:58:08Z</time>
      </trkpt>
      <trkpt lat="44.51305" lon="1.2158">
        <ele>242.87</ele>
        <time>2017-09-28T14:58:28Z</time>
      </trkpt>
      <trkpt lat="44.51284" lon="1.21573">
        <ele>241.91</ele>
        <time>2017-09-28T14:58:47Z</time>
      </trkpt>
      <trkpt lat="44.51268" lon="1.21554">
        <ele>239.02</ele>
        <time>2017-09-28T14:59:09Z</time>
      </trkpt>
      <trkpt lat="44.51247" lon="1.2155">
        <ele>237.1</ele>
        <time>2017-09-28T14:59:32Z</time>
      </trkpt>
      <trkpt lat="44.51224" lon="1.21558">
        <ele>235.66</ele>
        <time>2017-09-28T14:59:53Z</time>
      </trkpt>
      <trkpt lat="44.51204" lon="1.21569">
        <ele>234.22</ele>
        <time>2017-09-28T15:00:13Z</time>
      </trkpt>
      <trkpt lat="44.51182" lon="1.21574">
        <ele>232.3</ele>
        <time>2017-09-28T15:00:36Z</time>
      </trkpt>
      <trkpt lat="44.51163" lon="1.21584">
        <ele>228.93</ele>
        <time>2017-09-28T15:00:59Z</time>
      </trkpt>
      <trkpt lat="44.51145" lon="1.21601">
        <ele>226.53</ele>
        <time>2017-09-28T15:01:23Z</time>
      </trkpt>
      <trkpt lat="44.51128" lon="1.2162">
        <ele>223.16</ele>
        <time>2017-09-28T15:01:48Z</time>
      </trkpt>
      <trkpt lat="44.51107" lon="1.21607">
        <ele>219.32</ele>
        <time>2017-09-28T15:02:16Z</time>
      </trkpt>
      <trkpt lat="44.51092" lon="1.2158">
        <ele>216.43</ele>
        <time>2017-09-28T15:02:41Z</time>
      </trkpt>
      <trkpt lat="44.51074" lon="1.21559">
        <ele>213.55</ele>
        <time>2017-09-28T15:03:07Z</time>
      </trkpt>
      <trkpt lat="44.5107" lon="1.21528">
        <ele>210.19</ele>
        <time>2017-09-28T15:03:30Z</time>
      </trkpt>
      <trkpt lat="44.51088" lon="1.21508">
        <ele>207.3</ele>
        <time>2017-09-28T15:03:54Z</time>
      </trkpt>
      <trkpt lat="44.51111" lon="1.21485">
        <ele>204.9</ele>
        <time>2017-09-28T15:04:21Z</time>
      </trkpt>
      <trkpt lat="44.51127" lon="1.21458">
        <ele>202.98</ele>
        <time>2017-09-28T15:04:46Z</time>
      </trkpt>
      <trkpt lat="44.51139" lon="1.21431">
        <ele>201.05</ele>
        <time>2017-09-28T15:05:08Z</time>
      </trkpt>
      <trkpt lat="44.51149" lon="1.21402">
        <ele>199.13</ele>
        <time>2017-09-28T15:05:31Z</time>
      </trkpt>
      <trkpt lat="44.5116" lon="1.21376">
        <ele>197.21</ele>
        <time>2017-09-28T15:05:54Z</time>
      </trkpt>
      <trkpt lat="44.51165" lon="1.21346">
        <ele>195.28</ele>
        <time>2017-09-28T15:06:16Z</time>
      </trkpt>
      <trkpt lat="44.51167" lon="1.21312">
        <ele>193.36</ele>
        <time>2017-09-28T15:06:37Z</time>
      </trkpt>
      <trkpt lat="44.5117" lon="1.21277">
        <ele>190.96</ele>
        <time>2017-09-28T15:07:04Z</time>
      </trkpt>
      <trkpt lat="44.51177" lon="1.21242">
        <ele>188.56</ele>
        <time>2017-09-28T15:07:40Z</time>
      </trkpt>
      <trkpt lat="44.51187" lon="1.21209">
        <ele>186.15</ele>
        <time>2017-09-28T15:08:01Z</time>
      </trkpt>
      <trkpt lat="44.51199" lon="1.21174">
        <ele>183.75</ele>
        <time>2017-09-28T15:08:22Z</time>
      </trkpt>
      <trkpt lat="44.51208" lon="1.21143">
        <ele>181.35</ele>
        <time>2017-09-28T15:08:43Z</time>
      </trkpt>
      <trkpt lat="44.51208" lon="1.21106">
        <ele>178.94</ele>
        <time>2017-09-28T15:09:06Z</time>
      </trkpt>
      <trkpt lat="44.51211" lon="1.21073">
        <ele>177.5</ele>
        <time>2017-09-28T15:09:27Z</time>
      </trkpt>
      <trkpt lat="44.5121" lon="1.21042">
        <ele>175.58</ele>
        <time>2017-09-28T15:09:48Z</time>
      </trkpt>
      <trkpt lat="44.51211" lon="1.2101">
        <ele>174.62</ele>
        <time>2017-09-28T15:10:09Z</time>
      </trkpt>
      <trkpt lat="44.51214" lon="1.20977">
        <ele>173.17</ele>
        <time>2017-09-28T15:10:32Z</time>
      </trkpt>
      <trkpt lat="44.51218" lon="1.20944">
        <ele>172.21</ele>
        <time>2017-09-28T15:10:53Z</time>
      </trkpt>
      <trkpt lat="44.51224" lon="1.20913">
        <ele>171.25</ele>
        <time>2017-09-28T15:11:12Z</time>
      </trkpt>
      <trkpt lat="44.51232" lon="1.20884">
        <ele>170.29</ele>
        <time>2017-09-28T15:11:33Z</time>
      </trkpt>
      <trkpt lat="44.51238" lon="1.20854">
        <ele>168.85</ele>
        <time>2017-09-28T15:11:53Z</time>
      </trkpt>
      <trkpt lat="44.51242" lon="1.20824">
        <ele>166.93</ele>
        <time>2017-09-28T15:12:14Z</time>
      </trkpt>
      <trkpt lat="44.51237" lon="1.20794">
        <ele>165.48</ele>
        <time>2017-09-28T15:12:39Z</time>
      </trkpt>
      <trkpt lat="44.51229" lon="1.20767">
        <ele>163.56</ele>
        <time>2017-09-28T15:12:58Z</time>
      </trkpt>
      <trkpt lat="44.5123" lon="1.20736">
        <ele>162.12</ele>
        <time>2017-09-28T15:13:24Z</time>
      </trkpt>
      <trkpt lat="44.51229" lon="1.20705">
        <ele>160.68</ele>
        <time>2017-09-28T15:13:42Z</time>
      </trkpt>
      <trkpt lat="44.51225" lon="1.20674">
        <ele>158.75</ele>
        <time>2017-09-28T15:14:01Z</time>
      </trkpt>
      <trkpt lat="44.51215" lon="1.20645">
        <ele>157.31</ele>
        <time>2017-09-28T15:14:26Z</time>
      </trkpt>
      <trkpt lat="44.51205" lon="1.20618">
        <ele>155.87</ele>
        <time>2017-09-28T15:14:43Z</time>
      </trkpt>
      <trkpt lat="44.51192" lon="1.20595">
        <ele>154.43</ele>
        <time>2017-09-28T15:15:26Z</time>
      </trkpt>
      <trkpt lat="44.51179" lon="1.20566">
        <ele>152.99</ele>
        <time>2017-09-28T15:15:51Z</time>
      </trkpt>
      <trkpt lat="44.51167" lon="1.2054">
        <ele>152.51</ele>
        <time>2017-09-28T15:16:09Z</time>
      </trkpt>
      <trkpt lat="44.51158" lon="1.20514">
        <ele>151.54</ele>
        <time>2017-09-28T15:16:25Z</time>
      </trkpt>
      <trkpt lat="44.51149" lon="1.20487">
        <ele>150.1</ele>
        <time>2017-09-28T15:16:40Z</time>
      </trkpt>
      <trkpt lat="44.51142" lon="1.20459">
        <ele>150.1</ele>
        <time>2017-09-28T15:16:55Z</time>
      </trkpt>
      <trkpt lat="44.51141" lon="1.20427">
        <ele>149.62</ele>
        <time>2017-09-28T15:17:11Z</time>
      </trkpt>
      <trkpt lat="44.51139" lon="1.20397">
        <ele>148.66</ele>
        <time>2017-09-28T15:17:27Z</time>
      </trkpt>
      <trkpt lat="44.51138" lon="1.20364">
        <ele>147.7</ele>
        <time>2017-09-28T15:17:45Z</time>
      </trkpt>
      <trkpt lat="44.51135" lon="1.20333">
        <ele>146.74</ele>
        <time>2017-09-28T15:18:00Z</time>
      </trkpt>
      <trkpt lat="44.51134" lon="1.20305">
        <ele>145.78</ele>
        <time>2017-09-28T15:18:13Z</time>
      </trkpt>
      <trkpt lat="44.51133" lon="1.20274">
        <ele>144.82</ele>
        <time>2017-09-28T15:18:29Z</time>
      </trkpt>
      <trkpt lat="44.51137" lon="1.20244">
        <ele>144.34</ele>
        <time>2017-09-28T15:18:45Z</time>
      </trkpt>
      <trkpt lat="44.51145" lon="1.20211">
        <ele>142.89</ele>
        <time>2017-09-28T15:19:03Z</time>
      </trkpt>
      <trkpt lat="44.51157" lon="1.20186">
        <ele>142.41</ele>
        <time>2017-09-28T15:19:20Z</time>
      </trkpt>
      <trkpt lat="44.51169" lon="1.20162">
        <ele>141.93</ele>
        <time>2017-09-28T15:19:37Z</time>
      </trkpt>
      <trkpt lat="44.51185" lon="1.20145">
        <ele>141.45</ele>
        <time>2017-09-28T15:19:53Z</time>
      </trkpt>
      <trkpt lat="44.51199" lon="1.20122">
        <ele>140.97</ele>
        <time>2017-09-28T15:20:11Z</time>
      </trkpt>
      <trkpt lat="44.51213" lon="1.201">
        <ele>139.53</ele>
        <time>2017-09-28T15:20:29Z</time>
      </trkpt>
      <trkpt lat="44.51226" lon="1.20077">
        <ele>139.05</ele>
        <time>2017-09-28T15:20:46Z</time>
      </trkpt>
      <trkpt lat="44.51239" lon="1.20056">
        <ele>138.57</ele>
        <time>2017-09-28T15:21:06Z</time>
      </trkpt>
      <trkpt lat="44.51252" lon="1.20034">
        <ele>138.09</ele>
        <time>2017-09-28T15:21:22Z</time>
      </trkpt>
      <trkpt lat="44.51265" lon="1.20012">
        <ele>137.13</ele>
        <time>2017-09-28T15:21:40Z</time>
      </trkpt>
      <trkpt lat="44.51276" lon="1.19987">
        <ele>136.64</ele>
        <time>2017-09-28T15:21:59Z</time>
      </trkpt>
      <trkpt lat="44.51279" lon="1.1996">
        <ele>136.16</ele>
        <time>2017-09-28T15:24:05Z</time>
      </trkpt>
      <trkpt lat="44.51263" lon="1.19948">
        <ele>133.76</ele>
        <time>2017-09-28T15:24:28Z</time>
      </trkpt>
      <trkpt lat="44.51246" lon="1.19941">
        <ele>132.8</ele>
        <time>2017-09-28T15:24:44Z</time>
      </trkpt>
      <trkpt lat="44.51235" lon="1.19916">
        <ele>132.32</ele>
        <time>2017-09-28T15:25:01Z</time>
      </trkpt>
      <trkpt lat="44.51228" lon="1.19887">
        <ele>132.32</ele>
        <time>2017-09-28T15:25:18Z</time>
      </trkpt>
      <trkpt lat="44.51217" lon="1.19861">
        <ele>131.84</ele>
        <time>2017-09-28T15:25:36Z</time>
      </trkpt>
      <trkpt lat="44.51201" lon="1.19845">
        <ele>131.84</ele>
        <time>2017-09-28T15:25:52Z</time>
      </trkpt>
      <trkpt lat="44.51188" lon="1.19824">
        <ele>131.84</ele>
        <time>2017-09-28T15:26:08Z</time>
      </trkpt>
      <trkpt lat="44.51175" lon="1.198">
        <ele>131.84</ele>
        <time>2017-09-28T15:26:24Z</time>
      </trkpt>
      <trkpt lat="44.51165" lon="1.19776">
        <ele>131.84</ele>
        <time>2017-09-28T15:26:41Z</time>
      </trkpt>
      <trkpt lat="44.51156" lon="1.19752">
        <ele>131.36</ele>
        <time>2017-09-28T15:26:58Z</time>
      </trkpt>
      <trkpt lat="44.51146" lon="1.19727">
        <ele>131.36</ele>
        <time>2017-09-28T15:27:15Z</time>
      </trkpt>
      <trkpt lat="44.51135" lon="1.19704">
        <ele>131.36</ele>
        <time>2017-09-28T15:27:31Z</time>
      </trkpt>
      <trkpt lat="44.51123" lon="1.19684">
        <ele>131.36</ele>
        <time>2017-09-28T15:27:47Z</time>
      </trkpt>
      <trkpt lat="44.51108" lon="1.19667">
        <ele>131.36</ele>
        <time>2017-09-28T15:28:04Z</time>
      </trkpt>
      <trkpt lat="44.51092" lon="1.19652">
        <ele>131.36</ele>
        <time>2017-09-28T15:28:20Z</time>
      </trkpt>
      <trkpt lat="44.51075" lon="1.19638">
        <ele>130.88</ele>
        <time>2017-09-28T15:28:37Z</time>
      </trkpt>
      <trkpt lat="44.51059" lon="1.19624">
        <ele>130.88</ele>
        <time>2017-09-28T15:28:53Z</time>
      </trkpt>
      <trkpt lat="44.51041" lon="1.19609">
        <ele>130.88</ele>
        <time>2017-09-28T15:29:09Z</time>
      </trkpt>
      <trkpt lat="44.51024" lon="1.19597">
        <ele>130.88</ele>
        <time>2017-09-28T15:29:24Z</time>
      </trkpt>
      <trkpt lat="44.51008" lon="1.19584">
        <ele>130.88</ele>
        <time>2017-09-28T15:29:39Z</time>
      </trkpt>
      <trkpt lat="44.50991" lon="1.19568">
        <ele>130.4</ele>
        <time>2017-09-28T15:29:54Z</time>
      </trkpt>
      <trkpt lat="44.50975" lon="1.19551">
        <ele>130.4</ele>
        <time>2017-09-28T15:30:09Z</time>
      </trkpt>
      <trkpt lat="44.50959" lon="1.19536">
        <ele>130.4</ele>
        <time>2017-09-28T15:30:23Z</time>
      </trkpt>
      <trkpt lat="44.50943" lon="1.19521">
        <ele>130.4</ele>
        <time>2017-09-28T15:30:37Z</time>
      </trkpt>
      <trkpt lat="44.50928" lon="1.19506">
        <ele>129.92</ele>
        <time>2017-09-28T15:30:51Z</time>
      </trkpt>
      <trkpt lat="44.50911" lon="1.19493">
        <ele>129.92</ele>
        <time>2017-09-28T15:31:06Z</time>
      </trkpt>
      <trkpt lat="44.509" lon="1.1947">
        <ele>129.92</ele>
        <time>2017-09-28T15:31:21Z</time>
      </trkpt>
      <trkpt lat="44.50894" lon="1.19444">
        <ele>129.92</ele>
        <time>2017-09-28T15:31:36Z</time>
      </trkpt>
      <trkpt lat="44.50889" lon="1.19418">
        <ele>129.43</ele>
        <time>2017-09-28T15:31:51Z</time>
      </trkpt>
      <trkpt lat="44.50884" lon="1.19392">
        <ele>129.43</ele>
        <time>2017-09-28T15:32:06Z</time>
      </trkpt>
      <trkpt lat="44.5088" lon="1.19365">
        <ele>129.43</ele>
        <time>2017-09-28T15:32:21Z</time>
      </trkpt>
      <trkpt lat="44.50875" lon="1.19338">
        <ele>129.43</ele>
        <time>2017-09-28T15:32:36Z</time>
      </trkpt>
      <trkpt lat="44.50869" lon="1.19313">
        <ele>128.95</ele>
        <time>2017-09-28T15:32:51Z</time>
      </trkpt>
      <trkpt lat="44.50864" lon="1.19288">
        <ele>128.95</ele>
        <time>2017-09-28T15:33:06Z</time>
      </trkpt>
      <trkpt lat="44.50858" lon="1.1926">
        <ele>128.95</ele>
        <time>2017-09-28T15:33:23Z</time>
      </trkpt>
      <trkpt lat="44.50851" lon="1.19234">
        <ele>128.47</ele>
        <time>2017-09-28T15:33:38Z</time>
      </trkpt>
      <trkpt lat="44.50845" lon="1.19208">
        <ele>128.47</ele>
        <time>2017-09-28T15:33:53Z</time>
      </trkpt>
      <trkpt lat="44.50838" lon="1.19182">
        <ele>128.47</ele>
        <time>2017-09-28T15:34:09Z</time>
      </trkpt>
      <trkpt lat="44.50831" lon="1.19158">
        <ele>127.99</ele>
        <time>2017-09-28T15:34:24Z</time>
      </trkpt>
      <trkpt lat="44.50824" lon="1.19133">
        <ele>127.99</ele>
        <time>2017-09-28T15:34:39Z</time>
      </trkpt>
      <trkpt lat="44.50811" lon="1.19113">
        <ele>127.99</ele>
        <time>2017-09-28T15:34:55Z</time>
      </trkpt>
      <trkpt lat="44.50794" lon="1.19118">
        <ele>127.51</ele>
        <time>2017-09-28T15:35:10Z</time>
      </trkpt>
      <trkpt lat="44.50774" lon="1.19123">
        <ele>127.51</ele>
        <time>2017-09-28T15:35:25Z</time>
      </trkpt>
      <trkpt lat="44.50755" lon="1.19122">
        <ele>127.51</ele>
        <time>2017-09-28T15:35:42Z</time>
      </trkpt>
      <trkpt lat="44.50739" lon="1.19107">
        <ele>127.03</ele>
        <time>2017-09-28T15:35:58Z</time>
      </trkpt>
      <trkpt lat="44.50724" lon="1.19089">
        <ele>127.03</ele>
        <time>2017-09-28T15:36:14Z</time>
      </trkpt>
      <trkpt lat="44.50717" lon="1.19064">
        <ele>127.03</ele>
        <time>2017-09-28T15:36:30Z</time>
      </trkpt>
      <trkpt lat="44.50711" lon="1.19039">
        <ele>126.55</ele>
        <time>2017-09-28T15:36:47Z</time>
      </trkpt>
      <trkpt lat="44.50702" lon="1.19014">
        <ele>126.55</ele>
        <time>2017-09-28T15:37:03Z</time>
      </trkpt>
      <trkpt lat="44.50695" lon="1.18989">
        <ele>126.07</ele>
        <time>2017-09-28T15:37:37Z</time>
      </trkpt>
      <trkpt lat="44.50689" lon="1.18966">
        <ele>126.07</ele>
        <time>2017-09-28T15:37:58Z</time>
      </trkpt>
    </trkseg>
  </trk>
</gpx>